Silesia, Montana
Current Conditions -  °F | °C
As of 3:53 AM on Friday 21 Nov 2014 (Local Time) from KBIL Reporting Station
Clear Clear  
Wind Chill: 19°   Ceiling: Unl
Heat Index: 31°   Visibility: 10mi
Dew Point: 20°   Wind: 20mph
Humidity: 64%   Direction: 240°WSW
Pressure: 29.82"   Gusts: NA
Location:  45.5061°N, 109.005°W
Report Text: KBIL 211053Z 24017KT 10SM CLR M01/M07 A2982 RMK AO2 SLP118 T10061067 $
Loading
Personal Weather Stations






























Interactive Weather Map New forecast layout! Learn more

10-Day Weather Forecast

Advertisements
Track Severe Weather on mobile